Blue Oak Ranch Reserve, California Weather observations

Data are for 10 minute period ending at time listed.
 Day   Time   Solar   Ave.   Ave.  Ave.  Vector  Max.   Baro.   Total    
  of    of     Rad.   Air    Rel.  Wind   Wind   Wind  Press.  Precip.   
Year   Day            Temp.  Hum.  Speed  Dir.   Gust                    
2017   (PST)  Kw/m2    F      %     mph   deg.    mph    mb.     in.     
-------------------------------------------------------------------------
 200   12:20   0.94   80.3    29    7.2   244    11.1   950.1    0.00 
 200   12:30   0.94   79.5    30    7.3   246    12.3   950.0    0.00 
 200   12:40   0.94   79.8    30    6.7   239    12.5   950.0    0.00 
 200   12:50   0.93   79.9    30    7.8   240    12.6   950.0    0.00 
 200   13:00   0.90   79.9    30    7.3   232    11.7   950.0    0.00 
 200   13:10   0.92   80.0    28    7.3   229    12.3   949.9    0.00 
 200   13:20   0.92   81.8    26    6.1   240    10.7   949.8    0.00 
 200   13:30   0.91   82.2    26    7.7   242    12.2   949.7    0.00 
 200   13:40   0.89   82.0    26    7.8   243    12.1   949.6    0.00 
 200   13:50   0.88   82.4    26    7.1   227    12.6   949.6    0.00 
 200   14:00   0.86   82.7    27    7.3   233    12.3   949.5    0.00 
 200   14:10   0.85   82.8    28    6.9   242    11.2   949.5    0.00 
 200   14:20   0.84   83.4    27    5.8   238    12.6   949.3    0.00 
 200   14:30   0.82   84.0    27    6.9   240    11.8   949.2    0.00 
 200   14:40   0.80   83.8    28    6.8   259    14.5   949.1    0.00 
 200   14:50   0.78   83.2    28    7.3   240    12.6   949.1    0.00 
 200   15:00   0.75   83.8    27    6.1   245    12.5   949.1    0.00 
 200   15:10   0.73   83.6    27    7.0   250    13.3   949.1    0.00 
 200   15:20   0.71   83.4    26    6.4   260    12.2   949.0    0.00 
 200   15:30   0.68   83.5    25    6.9   262    11.4   949.0    0.00 
 200   15:40   0.66   82.4    24    7.4   254    13.7   948.9    0.00 
 200   15:50   0.63   82.8    24    6.6   260    10.8   948.9    0.00 
 200   16:00   0.60   82.8    25    6.0   261    12.3   948.9    0.00 
 200   16:10   0.57   82.5    25    7.5   285    11.6   948.8    0.00 
 200   16:20   0.54   81.6    25    6.3   295    11.2   948.9    0.00 
 200   16:30   0.51   80.6    26    7.7   290    12.6   948.9    0.00 
 200   16:40   0.48   81.1    24    7.5   295    12.4   948.9    0.00 
 200   16:50   0.45   79.6    27    9.5   292    13.6   948.9    0.00 
 200   17:00   0.42   79.1    30    8.2   280    12.6   949.0    0.00 
 200   17:10   0.39   78.6    29    8.4   286    13.6   949.0    0.00 
 200   17:20   0.36   77.2    27    8.6   299    14.4   949.0    0.00 
 200   17:30   0.33   76.2    28    6.7   312    11.4   949.0    0.00 
 200   17:40   0.29   75.8    29    8.7   292    13.7   949.1    0.00 
 200   17:50   0.26   74.2    30    9.3   306    14.4   949.1    0.00 
 200   18:00   0.23   73.7    31    8.2   291    14.3   949.1    0.00 
 200   18:10   0.20   73.7    31    7.3   284    12.7   949.1    0.00 
 200   18:20   0.17   73.8    31    5.8   289    12.7   949.2    0.00 
 200   18:30   0.14   73.3    31    7.1   285    14.0   949.3    0.00 
 200   18:40   0.11   72.7    32    5.8   286    13.8   949.3    0.00 
 200   18:50   0.08   71.0    34    6.2   299    12.9   949.3    0.00 
 200   19:00   0.06   70.4    35    5.9   306    11.7   949.4    0.00 
 200   19:10   0.03   69.4    36    6.6   305    11.2   949.4    0.00 
 200   19:20   0.01   67.9    38    6.1   310     9.4   949.3    0.00 
 200   19:30   0.01   66.4    41    4.1   303     7.9   949.3    0.00 
 200   19:40   0.00   64.9    43    3.1   306     6.2   949.2    0.00 
 200   19:50   0.00   63.7    45    2.2   320     4.3   949.1    0.00 
 200   20:00   0.00   62.5    46    2.1     5     3.9   949.0    0.00 
 200   20:10   0.00   60.8    49    1.8     8     3.1   948.9    0.00 
 200   20:20   0.00   59.0    52    0.9    12     2.6   949.0    0.00 
 200   20:30   0.00   57.9    54    0.9   279     3.1   949.1    0.00 
 200   20:40   0.00   57.5    55    1.5   320     3.1   949.2    0.00 
 200   20:50   0.00   57.2    55    2.3   345     4.5   949.3    0.00 
 200   21:00   0.00   56.8    56    1.3   333     6.0   949.4    0.00 
 200   21:10   0.00   56.1    58    1.1    43     2.9   949.5    0.00 
 200   21:20   0.00   55.7    59    1.2   278     2.0   949.6    0.00 
 200   21:30   0.00   55.1    60    0.2   279     0.9   949.6    0.00 
 200   21:40   0.00   54.7    61    0.3   294     1.3   949.6    0.00 
 200   21:50   0.00   53.8    63    0.2    55     1.5   949.7    0.00 
 200   22:00   0.00   53.3    64    0.0   274     0.5   949.7    0.00 
 200   22:10   0.00   53.0    64    0.1    11     1.1   949.6    0.00 
 200   22:20   0.00   52.7    65    0.2   267     1.2   949.6    0.00 
 200   22:30   0.00   52.2    66    0.4   278     1.5   949.5    0.00 
 200   22:40   0.00   52.0    67    0.4   307     1.5   949.6    0.00 
 200   22:50   0.00   52.0    66    0.7    31     1.2   949.6    0.00 
 200   23:00   0.00   51.9    65    1.0   289     2.9   949.6    0.00 
 200   23:10   0.00   52.0    66    0.8   294     2.8   949.6    0.00 
 200   23:20   0.00   51.7    66    0.1    52     0.7   949.7    0.00 
 200   23:30   0.00   51.7    66    0.0     0     0.0   949.7    0.00 
 200   23:40   0.00   51.6    66    0.0     0     0.0   949.7    0.00 
 200   23:50   0.00   51.3    67    0.7   300     2.3   949.6    0.00 
 201    0:00   0.00   51.2    68    0.7   300     1.8   949.6    0.00 
 201    0:10   0.00   51.5    67    0.1    82     0.7   949.6    0.00 
 201    0:20   0.00   51.6    67    0.1   135     0.8   949.6    0.00 
 201    0:30   0.00   51.4    67    0.0     0     0.0   949.6    0.00 
 201    0:40   0.00   50.8    69    0.9   298     2.0   949.6    0.00 
 201    0:50   0.00   50.6    70    1.0   299     2.4   949.6    0.00 
 201    1:00   0.00   50.5    71    0.3    75     1.2   949.6    0.00 
 201    1:10   0.00   50.6    71    0.3   290     1.5   949.6    0.00 
 201    1:20   0.00   50.5    72    0.5    63     1.4   949.6    0.00 
 201    1:30   0.00   50.3    72    0.0     0     0.0   949.5    0.00 
 201    1:40   0.00   50.3    72    0.8   292     1.2   949.5    0.00 
 201    1:50   0.00   50.2    74    0.2   316     0.8   949.5    0.00 
 201    2:00   0.00   50.6    74    0.5   305     1.3   949.4    0.00 
 201    2:10   0.00   50.5    74    0.3   307     0.9   949.4    0.00 
 201    2:20   0.00   50.2    76    0.0     0     0.0   949.4    0.00 
 201    2:30   0.00   50.1    76    0.0     0     0.0   949.5    0.00 
 201    2:40   0.00   49.8    77    0.0     0     0.0   949.5    0.00 
 201    2:50   0.00   49.8    77    1.0   297     2.3   949.5    0.00 
 201    3:00   0.00   49.4    78    0.6   291     1.3   949.5    0.00 
 201    3:10   0.00   49.8    78    0.2   300     1.1   949.4    0.00 
 201    3:20   0.00   49.7    77    0.5    87     1.8   949.6    0.00 
 201    3:30   0.00   49.2    78    0.0     0     0.0   949.6    0.00 
 201    3:40   0.00   49.2    78    0.0   302     0.6   949.6    0.00 
 201    3:50   0.00   49.4    79    0.1    80     1.0   949.7    0.00 
 201    4:00   0.00   49.9    78    0.1   251     1.3   949.7    0.00 
 201    4:10   0.00   49.7    77    0.9   265     1.8   949.7    0.00 
 201    4:20   0.00   49.5    78    0.5     1     1.2   949.7    0.00 
 201    4:30   0.00   49.3    79    0.4    76     1.6   949.7    0.00 
 201    4:40   0.00   49.3    79    0.0   151     0.4   949.8    0.00 
 201    4:50   0.00   49.3    78    0.0     0     0.0   949.9    0.00 
 201    5:00   0.00   49.0    80    0.0     0     0.0   950.0    0.00 
 201    5:10   0.01   48.7    80    0.4    50     1.6   949.9    0.00 
 201    5:20   0.01   49.1    79    0.8   298     2.2   950.0    0.00 
 201    5:30   0.01   49.1    80    0.1   306     1.2   950.1    0.00 
 201    5:40   0.01   49.0    81    0.0     0     0.0   950.2    0.00 
 201    5:50   0.01   49.7    80    0.0   260     0.6   950.3    0.00 
 201    6:00   0.03   50.0    79    0.0   263     0.4   950.3    0.00 
 201    6:10   0.07   50.5    78    0.1   112     0.8   950.3    0.00 
 201    6:20   0.16   53.2    73    0.0     0     0.0   950.3    0.00 
 201    6:30   0.19   59.4    62    0.0   295     0.8   950.3    0.00 
 201    6:40   0.22   64.4    54    0.0     0     0.0   950.2    0.00 
 201    6:50   0.25   67.8    48    0.1    63     1.2   950.1    0.00 
 201    7:00   0.28   68.3    48    0.3   120     1.3   950.0    0.00 
 201    7:10   0.32   70.0    45    0.3    97     1.9   950.0    0.00 
 201    7:20   0.35   69.9    45    0.8   147     1.8   950.1    0.00 
 201    7:30   0.38   70.3    45    2.4   243     5.3   950.3    0.00 
 201    7:40   0.41   69.7    46    2.6   225     4.7   950.5    0.00 
 201    7:50   0.44   70.5    44    3.2   281     6.2   950.7    0.00 
 201    8:00   0.47   69.1    46    4.1   292     6.2   950.8    0.00 
 201    8:10   0.50   70.8    44    4.5   286     6.9   950.9    0.00 
 201    8:20   0.53   71.9    42    4.0   268     6.4   951.0    0.00 
 201    8:30   0.56   72.7    42    3.9   243     7.5   951.0    0.00 
 201    8:40   0.59   70.9    45    5.0   230     8.0   951.1    0.00 
 201    8:50   0.62   70.9    45    5.2   228     8.9   951.1    0.00 
 201    9:00   0.65   70.3    46    5.1   217     8.3   951.2    0.00 
 201    9:10   0.67   70.4    46    5.0   210     9.2   951.2    0.00 
 201    9:20   0.70   70.9    46    4.9   217     8.1   951.2    0.00 
 201    9:30   0.72   72.1    46    5.6   247     8.5   951.2    0.00 
 201    9:40   0.74   72.8    44    5.4   254     9.5   951.4    0.00 
 201    9:50   0.76   73.4    43    5.6   267     8.7   951.4    0.00 
 201   10:00   0.79   74.6    41    4.4   258     7.8   951.4    0.00 
 201   10:10   0.81   74.4    40    5.4   236     9.6   951.4    0.00 
 201   10:20   0.82   74.7    40    5.2   240     9.6   951.4    0.00 
 201   10:30   0.84   74.5    40    5.2   243     8.6   951.5    0.00 
 201   10:40   0.85   75.7    39    4.8   255     9.1   951.5    0.00 
 201   10:50   0.87   75.5    39    5.3   250     9.8   951.4    0.00 
 201   11:00   0.88   76.8    37    4.8   246     9.4   951.4    0.00 
 201   11:10   0.89   77.1    37    6.2   255    10.4   951.3    0.00 
 201   11:20   0.90   77.2    37    6.5   256    11.7   951.3    0.00 
 201   11:30   0.91   76.8    36    6.9   241    11.8   951.3    0.00 
 201   11:40   0.92   77.0    36    5.6   245    10.5   951.3    0.00 
 201   11:50   0.92   77.5    36    6.4   247    10.9   951.2    0.00 
 201   12:00   0.93   77.5    36    6.6   257    12.3   951.2    0.00 
 201   12:10   0.93   78.2    35    6.5   246    13.7   951.2    0.00 

Return to Blue Oak Ranch Reserve graphs page.


Western Regional Climate Center,wrcc@dri.edu